Latest Weather Observations for Badgingarra

IDW60801

Issued at 8:03 pm WST Wednesday 27 May 2015 (issued every 30 minutes, with the page automatically refreshed every 10 minutes)

About weather observations | Map of weather stations | Latest weather observations for WA | Other Formats
Station Details ID: 009037 Name: BADGINGARRA RESEARCH STN Lat: -30.34 Lon: 115.54 Height: 275.0 m
Data from the previous 72 hours. | See also: Recent months at Badgingarra
Date/Time
WST
Temp
°C
App
Temp
°C
Dew
Point
Rel
Hum
%
Delta-T
°C
Wind Press
QNH
hPa
Press
MSL
hPa
Rain
since 9 am
mm
Dir
 
Spd
km/h
Gust
km/h
Spd
kts
Gust
kts
27/08:00pm 11.0 6.9 6.2 72 2.3 SSE 17 20 9 11 - - 0.0
27/07:30pm 12.3 7.9 6.6 68 2.8 SSE 19 24 10 13 - - 0.0
27/07:00pm 12.1 8.0 6.4 68 2.7 SSE 17 20 9 11 - - 0.0
27/06:30pm 11.7 8.4 6.2 69 2.6 SSE 13 15 7 8 - - 0.0
27/06:00pm 13.9 9.9 6.7 62 3.5 SSE 17 22 9 12 - - 0.0
27/05:30pm 14.7 10.8 7.0 60 3.8 SSE 17 20 9 11 - - 0.0
27/05:00pm 16.3 12.9 7.8 57 4.3 SSE 15 20 8 11 - - 0.0
27/04:30pm 17.1 13.2 8.5 57 4.5 SSE 19 24 10 13 - - 0.0
27/04:00pm 18.0 14.3 8.0 52 5.2 SSE 17 26 9 14 - - 0.0
27/03:30pm 17.8 14.4 7.5 51 5.3 S 15 19 8 10 - - 0.0
27/03:00pm 18.3 14.8 8.6 53 5.1 SSE 17 26 9 14 - - 0.0
27/02:30pm 19.5 17.0 8.2 48 5.9 S 11 17 6 9 - - 0.0
27/02:00pm 18.9 15.4 7.4 47 5.9 SSE 15 19 8 10 - - 0.0
27/01:30pm 18.1 15.0 7.2 49 5.6 SSE 13 20 7 11 - - 0.0
27/01:00pm 19.1 17.2 7.5 47 6.0 SSE 7 20 4 11 - - 0.0
27/12:30pm 18.6 16.7 7.4 48 5.7 SSE 7 13 4 7 - - 0.0
27/12:00pm 18.5 16.3 7.9 50 5.5 SE 9 19 5 10 - - 0.0
27/11:30am 18.0 15.5 8.3 53 5.0 ENE 11 17 6 9 - - 0.0
27/11:00am 17.6 14.8 8.7 56 4.7 E 13 20 7 11 - - 0.0
27/10:30am 16.8 13.9 9.7 63 3.8 E 15 20 8 11 - - 0.0
27/10:00am 15.7 13.1 10.7 72 2.7 E 15 19 8 10 - - 0.0
27/09:30am 14.6 12.0 10.6 77 2.1 E 15 19 8 10 - - 0.0
27/09:00am 13.9 11.4 10.9 82 1.6 E 15 19 8 10 - - 0.2
27/08:30am 12.5 10.6 10.4 87 1.1 E 11 15 6 8 - - 0.2
27/08:00am 11.6 8.8 9.9 89 0.9 ENE 15 17 8 9 - - 0.2
27/07:30am 10.4 7.7 9.0 91 0.7 E 13 15 7 8 - - 0.2
27/07:00am 9.6 6.7 8.0 90 0.8 E 13 15 7 8 - - 0.2
27/06:30am 9.0 6.4 7.9 93 0.5 SE 11 13 6 7 - - 0.2
27/06:00am 9.1 6.5 7.7 91 0.7 SE 11 13 6 7 - - 0.2
27/05:30am 10.0 7.2 8.4 90 0.8 SE 13 15 7 8 - - 0.2
27/05:00am 10.3 7.5 8.7 90 0.8 SE 13 15 7 8 - - 0.0
27/04:30am 10.1 7.3 8.7 91 0.7 SE 13 15 7 8 - - 0.0
27/04:00am 10.4 8.1 9.0 91 0.7 SE 11 13 6 7 - - 0.0
27/03:30am 10.4 7.7 9.0 91 0.7 SE 13 15 7 8 - - 0.0
27/03:00am 10.4 7.6 8.7 89 0.8 SE 13 17 7 9 - - 0.0
27/02:30am 10.7 7.7 9.3 91 0.7 SE 15 17 8 9 - - 0.0
27/02:00am 10.4 7.7 9.0 91 0.7 SE 13 15 7 8 - - 0.0
27/01:30am 9.9 6.8 8.7 92 0.6 SSE 15 15 8 8 - - 0.0
27/01:00am 9.3 6.7 7.9 91 0.7 SSE 11 13 6 7 - - 0.0
27/12:30am 10.3 7.5 8.6 89 0.8 SE 13 17 7 9 - - 0.0
27/12:00am 10.4 7.3 9.0 91 0.7 SSE 15 17 8 9 - - 0.0
 
Date/Time
WST
Temp
°C
App
Temp
°C
Dew
Point
Rel
Hum
%
Delta-T
°C
Wind Press
QNH
hPa
Press
MSL
hPa
Rain
since 9 am
mm
Dir
 
Spd
km/h
Gust
km/h
Spd
kts
Gust
kts
26/11:30pm 10.2 7.5 9.0 92 0.6 SSE 13 15 7 8 - - 0.0
26/11:00pm 10.6 7.9 9.0 90 0.8 SSE 13 13 7 7 - - 0.0
26/10:30pm 11.2 8.6 9.3 88 1.0 SSE 13 15 7 8 - - 0.0
26/10:00pm 11.4 9.0 10.0 91 0.7 SSE 13 15 7 8 - - 0.0
26/09:30pm 11.0 8.6 10.1 94 0.5 SSE 13 15 7 8 - - 0.0
26/09:00pm 11.2 9.2 10.1 93 0.6 S 11 15 6 8 - - 0.0
26/08:30pm 11.7 8.7 10.6 93 0.6 S 17 17 9 9 - - 0.0
26/08:00pm 12.1 8.8 10.8 92 0.7 SSW 19 20 10 11 - - 0.0
26/07:30pm 12.5 9.0 10.9 90 0.8 SSW 20 22 11 12 - - 0.0
26/07:00pm 13.2 9.9 10.9 86 1.2 S 19 20 10 11 - - 0.0
26/06:30pm 12.8 9.6 10.0 83 1.5 SSW 17 19 9 10 - - 0.0
26/06:00pm 13.2 10.7 9.8 80 1.8 SSW 13 17 7 9 - - 0.0
26/05:30pm 15.3 12.3 10.5 73 2.6 SSW 17 20 9 11 - - 0.0
26/05:00pm 17.1 13.5 10.7 66 3.5 SSW 20 26 11 14 - - 0.0
26/04:30pm 17.1 14.7 10.0 63 3.8 SSW 13 17 7 9 - - 0.0
26/04:00pm 19.1 16.3 10.1 56 4.9 SSW 15 20 8 11 - - 0.0
26/03:30pm 18.7 15.9 10.0 57 4.7 SSW 15 17 8 9 - - 0.0
26/03:00pm 18.9 15.3 9.7 55 4.9 S 19 24 10 13 - - 0.0
26/02:30pm 18.7 16.2 8.4 51 5.4 S 11 17 6 9 - - 0.0
26/02:00pm 20.1 17.3 7.1 43 6.7 SSE 11 20 6 11 - - 0.0
26/01:30pm 19.6 17.0 9.2 51 5.6 S 13 20 7 11 - - 0.0
26/01:00pm 19.4 17.0 10.1 55 5.0 SE 13 19 7 10 - - 0.0
26/12:30pm 18.7 15.5 9.8 56 4.8 SSW 17 24 9 13 - - 0.0
26/12:00pm 18.9 15.4 10.2 57 4.7 S 19 26 10 14 - - 0.0
26/11:30am 18.8 16.3 10.9 60 4.3 SE 15 22 8 12 - - 0.0
26/11:00am 18.6 15.7 10.9 61 4.2 SSE 17 26 9 14 - - 0.0
26/10:30am 18.1 15.8 11.7 66 3.6 SE 15 19 8 10 - - 0.0
26/10:00am 17.4 16.1 12.5 73 2.8 SE 11 17 6 9 - - 0.0
26/09:30am 16.1 15.2 12.7 80 1.9 ESE 9 11 5 6 - - 0.0
26/09:00am 14.9 14.2 12.0 83 1.6 E 7 9 4 5 - - 0.0
26/08:30am 13.3 12.0 11.2 87 1.1 ENE 9 13 5 7 - - 0.0
26/08:00am 12.6 11.7 11.5 93 0.6 E 7 9 4 5 - - 0.0
26/07:30am 10.6 8.9 9.7 94 0.5 SE 9 11 5 6 - - 0.0
26/07:00am 9.1 7.0 8.2 94 0.4 SE 9 13 5 7 - - 0.0
26/06:30am 8.9 6.3 7.8 93 0.5 SE 11 13 6 7 - - 0.0
26/06:00am 9.2 6.7 8.4 95 0.4 SE 11 13 6 7 - - 0.0
26/05:30am 9.8 8.2 8.7 93 0.5 SSE 7 9 4 5 - - 0.0
26/05:00am 9.9 8.3 8.8 93 0.5 SSE 7 9 4 5 - - 0.0
26/04:30am 9.7 7.6 8.1 90 0.8 S 9 13 5 7 - - 0.0
26/04:00am 10.0 7.3 8.8 92 0.6 SSE 13 13 7 7 - - 0.0
26/03:30am 11.0 8.2 9.9 93 0.6 SSE 15 17 8 9 - - 0.0
26/03:00am 10.4 7.8 9.3 93 0.6 SSE 13 15 7 8 - - 0.0
26/02:30am 8.5 5.8 7.3 92 0.6 SSE 11 15 6 8 - - 0.0
26/02:00am 9.3 6.3 7.9 91 0.7 SSE 13 15 7 8 - - 0.0
26/01:30am 9.8 6.6 8.4 91 0.7 SSE 15 15 8 8 - - 0.0
26/01:00am 9.8 6.9 8.1 89 0.8 SSE 13 15 7 8 - - 0.0
26/12:30am 10.4 6.8 8.5 88 0.9 SSE 17 17 9 9 - - 0.0
26/12:00am 10.8 7.7 8.7 87 1.1 SSE 15 17 8 9 - - 0.0
 
Date/Time
WST
Temp
°C
App
Temp
°C
Dew
Point
Rel
Hum
%
Delta-T
°C
Wind Press
QNH
hPa
Press
MSL
hPa
Rain
since 9 am
mm
Dir
 
Spd
km/h
Gust
km/h
Spd
kts
Gust
kts
25/11:30pm 10.3 7.1 8.6 89 0.8 SSE 15 17 8 9 - - 0.0
25/11:00pm 10.7 7.9 8.5 86 1.1 SSE 13 13 7 7 - - 0.0
25/10:30pm 11.2 8.1 8.8 85 1.2 S 15 17 8 9 - - 0.0
25/10:00pm 11.8 8.7 9.0 83 1.4 S 15 17 8 9 - - 0.0
25/09:30pm 12.2 8.8 9.2 82 1.5 S 17 19 9 10 - - 0.0
25/09:00pm 12.0 8.9 8.8 81 1.6 S 15 17 8 9 - - 0.0
25/08:30pm 12.8 9.4 9.1 78 1.9 S 17 19 9 10 - - 0.0
25/08:00pm 13.5 9.7 9.0 74 2.3 S 19 24 10 13 - - 0.0
25/07:30pm 13.9 9.5 8.9 72 2.6 S 22 26 12 14 - - 0.0
25/07:00pm 14.0 9.6 9.0 72 2.6 S 22 26 12 14 - - 0.0
25/06:30pm 13.8 10.1 9.5 75 2.2 SSW 19 20 10 11 - - 0.0
25/06:00pm 14.8 11.2 10.0 73 2.5 SSW 19 20 10 11 - - 0.0
25/05:30pm 16.2 13.1 10.3 68 3.2 SSW 17 22 9 12 - - 0.0
25/05:00pm 18.1 15.1 7.8 51 5.3 SSW 13 15 7 8 - - 0.0
25/04:30pm 19.4 16.0 7.5 46 6.2 SSW 15 19 8 10 - - 0.0
25/04:00pm 20.2 17.8 6.9 42 6.8 S 9 15 5 8 - - 0.0
25/03:30pm 20.7 18.2 6.6 40 7.2 SSW 9 17 5 9 - - 0.0
25/03:00pm 20.9 18.5 7.2 41 7.1 SSE 9 13 5 7 - - 0.0
25/02:30pm 21.0 19.1 7.6 42 7.0 SSE 7 17 4 9 - - 0.0
25/02:00pm 20.5 18.5 7.2 42 6.9 SW 7 15 4 8 - - 0.0
25/01:30pm 20.3 17.6 7.3 43 6.7 SSW 11 19 6 10 - - 0.0
25/01:00pm 20.6 18.6 8.6 46 6.4 S 9 15 5 8 - - 0.0
25/12:30pm 20.6 18.0 7.9 44 6.7 SSW 11 17 6 9 - - 0.0
25/12:00pm 19.9 18.0 8.9 49 5.9 S 9 17 5 9 - - 0.0
25/11:30am 19.5 17.1 8.8 50 5.7 S 11 19 6 10 - - 0.0
25/11:00am 19.5 17.8 9.7 53 5.3 S 9 15 5 8 - - 0.0
25/10:30am 19.0 16.7 10.6 58 4.6 SE 13 17 7 9 - - 0.0
25/10:00am 18.1 16.8 11.2 64 3.8 SE 9 13 5 7 - - 0.0
25/09:30am 17.2 15.8 11.0 67 3.4 SE 9 13 5 7 - - 0.0
25/09:00am 15.7 14.7 11.1 74 2.5 SE 7 9 4 5 - - 0.2
25/08:30am 14.2 12.8 11.0 81 1.7 ESE 9 13 5 7 - - 0.2
25/08:00am 12.5 10.5 10.0 85 1.3 SE 11 11 6 6 - - 0.2
25/07:30am 11.2 9.0 9.3 88 1.0 ESE 11 13 6 7 - - 0.2
25/07:00am 9.6 7.1 8.4 92 0.6 SE 11 13 6 7 - - 0.2
25/06:30am 9.9 8.4 8.3 90 0.8 SSE 6 7 3 4 - - 0.2
25/06:00am 10.2 8.2 8.5 89 0.8 SE 9 11 5 6 - - 0.0
25/05:30am 10.1 7.6 8.0 87 1.0 SE 11 13 6 7 - - 0.0
25/05:00am 11.1 8.5 9.2 88 1.0 ESE 13 15 7 8 - - 0.0
25/04:30am 10.1 8.0 8.4 89 0.8 SE 9 11 5 6 - - 0.0
25/04:00am 10.4 8.2 9.2 92 0.6 SE 11 13 6 7 - - 0.0
25/03:30am 10.5 7.9 9.4 93 0.6 SSE 13 15 7 8 - - 0.0
25/03:00am 10.7 8.1 9.5 92 0.6 SE 13 15 7 8 - - 0.0
25/02:30am 10.6 8.4 9.4 92 0.6 S 11 13 6 7 - - 0.0
25/02:00am 10.7 8.5 9.5 92 0.6 SSE 11 13 6 7 - - 0.0
25/01:30am 11.0 8.9 9.9 93 0.6 S 11 15 6 8 - - 0.0
25/01:00am 10.6 8.0 9.5 93 0.6 SSE 13 13 7 7 - - 0.0
25/12:30am 10.6 7.6 9.4 92 0.6 SSE 15 15 8 8 - - 0.0
25/12:00am 11.0 8.5 9.6 91 0.7 SSE 13 13 7 7 - - 0.0
 
Date/Time
WST
Temp
°C
App
Temp
°C
Dew
Point
Rel
Hum
%
Delta-T
°C
Wind Press
QNH
hPa
Press
MSL
hPa
Rain
since 9 am
mm
Dir
 
Spd
km/h
Gust
km/h
Spd
kts
Gust
kts
24/11:30pm 11.3 8.8 9.6 89 0.9 SSE 13 15 7 8 - - 0.0
24/11:00pm 11.7 8.8 9.8 88 1.0 S 15 17 8 9 - - 0.0
24/10:30pm 11.6 8.6 9.2 85 1.2 SSE 15 17 8 9 - - 0.0
24/10:00pm 12.3 9.0 9.5 83 1.4 S 17 19 9 10 - - 0.0
24/09:30pm 12.5 9.2 9.5 82 1.5 SSE 17 20 9 11 - - 0.0
24/09:00pm 12.8 9.4 9.1 78 1.9 S 17 20 9 11 - - 0.0
24/08:30pm 13.4 9.7 9.5 77 2.0 S 19 22 10 12 - - 0.0

Other Formats:

Comma delimited format used in spreadsheet applications
http://www.bom.gov.au/fwo/IDW60801/IDW60801.94603.axf

JavaScript Object Notation format (JSON) in row-major order
http://www.bom.gov.au/fwo/IDW60801/IDW60801.94603.json